Time;durP1;ratioP1;P1;durP2;ratioP2;P2;SDS_P1;SDS_P2;PMS_P1;PMS_P2;Temp;Humidity;BMP_temperature;BMP_pressure;BME280_temperature;BME280_humidity;BME280_pressure;Samples;Min_cycle;Max_cycle;Signal;HPM_P1;HPM_P2
2022/08/16 00:00:10;;;;;;;12.13;9.65;;;;;;;-148.88;79.95;74020.63;5014362;28;20034;-86
2022/08/16 00:02:39;;;;;;;17.85;10.05;;;;;;;-148.88;80.74;74026.72;5014217;28;20028;-86
2022/08/16 00:05:06;;;;;;;14.32;10.15;;;;;;;-148.88;80.98;74038.88;5013641;28;20037;-86
2022/08/16 00:07:48;;;;;;;14.13;9.95;;;;;;;-148.88;81.52;74042.94;5014665;28;20030;-87
2022/08/16 00:10:21;;;;;;;16.23;10.25;;;;;;;-148.88;81.78;74051.06;5015089;28;20037;-87
2022/08/16 00:12:53;;;;;;;;;;;;;;;-148.88;81.51;74051.06;5015843;28;20475;-88
2022/08/16 00:15:46;;;;;;;11.45;8.73;;;;;;;-148.88;80.87;74055.13;5013532;28;19909;-87
2022/08/16 00:18:16;;;;;;;13.52;9.63;;;;;;;-148.88;81.20;74059.19;5015055;28;20026;-87
2022/08/16 00:20:44;;;;;;;11.43;9.10;;;;;;;-148.88;81.07;74061.22;5013667;28;20029;-86
2022/08/16 00:23:11;;;;;;;13.77;9.57;;;;;;;-148.88;81.76;74067.31;5014611;28;20080;-86
2022/08/16 00:25:38;;;;;;;12.82;9.48;;;;;;;-148.88;82.34;74075.44;5014589;28;20080;-86
2022/08/16 00:28:15;;;;;;;14.27;9.88;;;;;;;-148.88;82.22;74087.63;5014050;28;20025;-87
2022/08/16 00:30:43;;;;;;;13.50;9.93;;;;;;;-148.88;81.91;74087.63;5014368;28;20033;-87
2022/08/16 00:33:09;;;;;;;14.55;9.48;;;;;;;-148.88;82.29;74091.69;5013296;28;20121;-87
2022/08/16 00:35:38;;;;;;;13.10;9.35;;;;;;;-148.88;81.90;74087.63;5013754;28;20053;-86
2022/08/16 00:38:13;;;;;;;12.98;9.05;;;;;;;-148.88;81.08;74099.78;5012902;28;20038;-87
2022/08/16 00:40:55;;;;;;;13.60;9.88;;;;;;;-148.88;81.83;74109.94;5014607;28;20384;-87
2022/08/16 00:43:33;;;;;;;12.98;10.13;;;;;;;-148.88;81.06;74111.97;5016075;28;20059;-86
2022/08/16 00:46:08;;;;;;;13.23;9.68;;;;;;;-148.88;80.34;74109.94;5013674;28;20041;-87
2022/08/16 00:48:34;;;;;;;15.52;10.13;;;;;;;-148.88;80.10;74103.84;5013418;28;20503;-87
2022/08/16 00:51:04;;;;;;;10.65;8.85;;;;;;;-148.88;80.23;74120.09;5013103;28;20030;-86
2022/08/16 00:53:30;;;;;;;14.70;9.65;;;;;;;-148.88;80.35;74124.16;5014263;28;20026;-87
2022/08/16 00:56:02;;;;;;;11.60;9.63;;;;;;;-148.88;80.76;74124.16;5013111;28;20487;-86
2022/08/16 00:58:37;;;;;;;12.55;9.93;;;;;;;-148.88;80.90;74128.22;5012864;28;20037;-87
2022/08/16 01:01:07;;;;;;;13.93;10.05;;;;;;;-148.88;81.40;74130.25;5013333;28;20177;-87
2022/08/16 01:03:35;;;;;;;12.35;9.85;;;;;;;-148.88;81.67;74140.41;5012779;28;20036;-87
2022/08/16 01:06:07;;;;;;;14.00;10.65;;;;;;;-148.88;82.03;74150.56;5012561;28;20017;-87
2022/08/16 01:08:37;;;;;;;14.98;10.82;;;;;;;-148.88;82.10;74162.75;5012643;28;20389;-86
2022/08/16 01:11:04;;;;;;;11.95;8.73;;;;;;;-148.88;82.06;74158.69;5014217;28;20037;-87
2022/08/16 01:13:33;;;;;;;10.75;9.05;;;;;;;-148.88;81.83;74158.69;5017146;28;20503;-87
2022/08/16 01:16:06;;;;;;;10.98;8.77;;;;;;;-148.88;81.05;74160.72;5018066;28;20033;-87
2022/08/16 01:18:50;;;;;;;11.33;8.57;;;;;;;-148.88;80.27;74164.78;5017440;28;20022;-87
2022/08/16 01:21:42;;;;;;;10.93;8.35;;;;;;;-148.88;80.59;74168.84;5017474;28;20029;-86
2022/08/16 01:24:17;;;;;;;10.48;7.90;;;;;;;-148.88;80.73;74172.88;5017772;28;20029;-86
2022/08/16 01:26:44;;;;;;;11.70;9.38;;;;;;;-148.88;80.36;74172.88;5016779;28;20036;-87
2022/08/16 01:29:14;;;;;;;11.05;8.18;;;;;;;-148.88;80.40;74183.03;5036733;28;20044;-87
2022/08/16 01:31:42;;;;;;;13.02;8.75;;;;;;;-148.88;80.96;74181.00;5038286;28;20025;-86
2022/08/16 01:34:08;;;;;;;10.00;8.15;;;;;;;-148.88;80.94;74187.09;5036777;28;20041;-88
2022/08/16 01:36:35;;;;;;;9.32;7.63;;;;;;;-148.88;81.28;74189.13;5036385;28;20026;-87
2022/08/16 01:39:15;;;;;;;10.73;7.97;;;;;;;-148.88;81.04;74203.34;5038615;28;20021;-86
2022/08/16 01:41:45;;;;;;;13.02;8.65;;;;;;;-148.88;81.15;74213.50;5026078;28;20025;-86
2022/08/16 01:44:16;;;;;;;14.60;8.05;;;;;;;-148.88;81.48;74223.66;5017818;28;20084;-86
2022/08/16 01:46:48;;;;;;;12.57;8.15;;;;;;;-148.88;82.10;74233.81;5016583;28;20116;-87
2022/08/16 01:49:21;;;;;;;11.15;9.52;;;;;;;-148.88;82.58;74250.03;5016057;28;20054;-86
2022/08/16 01:51:52;;;;;;;14.50;8.98;;;;;;;-148.88;83.11;74246.00;5017319;28;20085;-86
2022/08/16 01:54:18;;;;;;;11.57;9.30;;;;;;;-148.88;83.08;74241.94;5017784;28;20033;-86
2022/08/16 02:00:11;;;;;;;13.52;8.75;;;;;;;-148.88;83.60;74248.00;5023816;28;20567;-87
2022/08/16 02:02:37;;;;;;;13.45;9.25;;;;;;;-148.88;86.30;74266.28;5033430;28;20026;-86
2022/08/16 02:05:05;;;;;;;10.93;9.73;;;;;;;-148.88;85.77;74274.41;5025436;28;20493;-87
2022/08/16 02:07:31;;;;;;;12.65;10.00;;;;;;;-148.88;86.33;74276.44;5018793;28;20080;-87
2022/08/16 02:09:57;;;;;;;13.52;9.93;;;;;;;-148.88;86.47;74274.41;5016446;28;20026;-87
2022/08/16 02:12:23;;;;;;;13.30;10.52;;;;;;;-148.88;86.93;74278.47;5016027;28;20517;-88
2022/08/16 02:14:49;;;;;;;11.35;9.25;;;;;;;-148.88;87.34;74274.41;5017439;28;20045;-87
2022/08/16 02:17:15;;;;;;;12.60;9.90;;;;;;;-148.88;86.29;74278.47;5015830;28;20022;-86
2022/08/16 02:19:47;;;;;;;14.93;9.15;;;;;;;-148.88;86.10;74274.41;5015537;28;20054;-86
2022/08/16 02:22:17;;;;;;;12.82;8.95;;;;;;;-148.88;86.03;74276.44;5016156;28;20030;-87
2022/08/16 02:24:43;;;;;;;13.88;8.50;;;;;;;-148.88;85.93;74284.56;5014869;28;20029;-86
2022/08/16 02:27:12;;;;;;;9.93;8.25;;;;;;;-148.88;85.96;74284.56;5015891;28;20041;-87
2022/08/16 02:29:39;;;;;;;12.65;9.32;;;;;;;-148.88;85.89;74278.47;5015920;28;20108;-87
2022/08/16 02:32:08;;;;;;;16.13;9.88;;;;;;;-148.88;85.59;74274.41;5016395;28;20481;-86
2022/08/16 02:34:35;;;;;;;11.95;9.63;;;;;;;-148.88;85.83;74274.41;5015421;28;20026;-87
2022/08/16 02:37:01;;;;;;;12.60;9.48;;;;;;;-148.88;85.28;74280.50;5016715;28;20026;-87
2022/08/16 02:39:27;;;;;;;14.30;9.85;;;;;;;-148.88;85.56;74278.47;5016580;28;20034;-86
2022/08/16 02:41:52;;;;;;;11.88;8.60;;;;;;;-148.88;85.36;74278.47;5015323;28;20087;-87
2022/08/16 02:44:20;;;;;;;11.98;9.10;;;;;;;-148.88;85.28;74282.53;5016500;28;20033;-86
2022/08/16 02:46:46;;;;;;;15.32;9.35;;;;;;;-148.88;85.40;74280.50;5014283;28;20077;-87
2022/08/16 02:49:12;;;;;;;11.07;8.60;;;;;;;-148.88;85.76;74282.53;5015374;28;20456;-87
2022/08/16 02:51:41;;;;;;;11.93;8.93;;;;;;;-148.88;85.33;74282.53;5016276;28;20447;-88
2022/08/16 02:54:12;;;;;;;11.55;8.07;;;;;;;-148.88;85.59;74278.47;5015058;28;20460;-87
2022/08/16 02:56:40;;;;;;;13.20;8.88;;;;;;;-148.88;85.27;74290.66;5015524;28;20025;-86
2022/08/16 02:59:05;;;;;;;11.48;8.40;;;;;;;-148.88;86.03;74294.72;5015858;28;20030;-87
2022/08/16 03:01:35;;;;;;;10.40;8.30;;;;;;;-148.88;86.13;74294.72;5015766;28;20022;-87
2022/08/16 03:04:05;;;;;;;12.15;8.60;;;;;;;-148.88;87.05;74296.75;5015112;28;20453;-85
2022/08/16 03:06:30;;;;;;;12.18;9.18;;;;;;;-148.88;87.82;74310.97;5015194;28;20034;-87
2022/08/16 03:09:30;;;;;;;13.18;8.57;;;;;;;-148.88;88.06;74306.91;5014624;28;20036;-86
2022/08/16 03:11:56;;;;;;;12.18;8.73;;;;;;;-148.88;86.94;74310.97;5016738;28;20041;-85
2022/08/16 03:14:21;;;;;;;12.88;9.02;;;;;;;-148.88;87.19;74306.91;5016458;28;20026;-85
2022/08/16 03:16:47;;;;;;;12.30;8.57;;;;;;;-148.88;87.18;74298.78;5015134;28;20030;-87
2022/08/16 03:19:12;;;;;;;11.10;8.52;;;;;;;-148.88;87.21;74302.84;5015422;28;20094;-85
2022/08/16 03:21:37;;;;;;;10.70;8.32;;;;;;;-148.88;86.86;74302.84;5014843;28;20022;-86
2022/08/16 03:24:02;;;;;;;11.50;8.80;;;;;;;-148.88;86.97;74298.78;5014721;28;20615;-83
2022/08/16 03:26:28;;;;;;;10.70;8.45;;;;;;;-148.88;86.86;74306.91;5015228;28;20026;-86
2022/08/16 03:28:54;;;;;;;11.07;8.13;;;;;;;-148.88;87.25;74306.91;5015299;28;20018;-86
2022/08/16 03:31:19;;;;;;;10.07;8.23;;;;;;;-148.88;87.61;74308.94;5015430;28;20034;-87
2022/08/16 03:33:44;;;;;;;12.48;8.68;;;;;;;-148.88;87.75;74308.94;5015328;28;20029;-86
2022/08/16 03:36:10;;;;;;;10.95;8.40;;;;;;;-148.88;87.92;74306.91;5014946;28;20401;-86
2022/08/16 03:38:35;;;;;;;10.73;8.43;;;;;;;-148.88;87.67;74304.88;5013835;28;20028;-86
2022/08/16 03:41:03;;;;;;;10.15;9.05;;;;;;;-148.88;87.63;74310.97;5014059;28;20107;-86
2022/08/16 03:43:28;;;;;;;11.57;9.63;;;;;;;-148.88;87.83;74319.09;5014912;28;20025;-86
2022/08/16 03:45:56;;;;;;;12.38;10.02;;;;;;;-148.88;88.16;74321.13;5013834;28;20029;-86
2022/08/16 03:48:29;;;;;;;14.95;11.60;;;;;;;-148.88;88.63;74323.16;5015151;28;20048;-86
2022/08/16 03:50:55;;;;;;;17.10;12.73;;;;;;;-148.88;89.26;74323.16;5013441;28;20045;-86
2022/08/16 03:53:20;;;;;;;15.93;11.98;;;;;;;-148.88;88.93;74331.25;5014532;28;20423;-86
2022/08/16 03:55:45;;;;;;;16.63;12.32;;;;;;;-148.88;89.47;74331.25;5014229;28;20033;-87
2022/08/16 03:58:11;;;;;;;15.32;11.45;;;;;;;-148.88;89.45;74339.38;5013489;28;20061;-87
2022/08/16 04:00:37;;;;;;;14.77;10.57;;;;;;;-148.88;89.51;74335.31;5013175;28;20075;-86
2022/08/16 04:03:07;;;;;;;13.52;10.70;;;;;;;-148.88;89.33;74341.41;5013349;28;20018;-86
2022/08/16 04:05:38;;;;;;;14.23;10.43;;;;;;;-148.88;89.43;74345.47;5014743;28;20029;-86
2022/08/16 04:08:05;;;;;;;13.48;10.07;;;;;;;-148.88;88.94;74349.53;5014458;28;20022;-86
2022/08/16 04:10:30;;;;;;;12.27;9.77;;;;;;;-148.88;88.86;74351.56;5014487;28;20030;-86
2022/08/16 04:12:57;;;;;;;15.77;10.13;;;;;;;-148.88;89.28;74361.72;5013881;28;20033;-86
2022/08/16 04:15:23;;;;;;;11.52;9.40;;;;;;;-148.88;89.29;74363.75;5014639;28;20034;-84
2022/08/16 04:17:48;;;;;;;12.88;9.70;;;;;;;-148.88;89.66;74367.81;5012960;28;20029;-86
2022/08/16 04:20:14;;;;;;;11.65;9.55;;;;;;;-148.88;89.70;74369.84;5014236;28;20034;-86
2022/08/16 04:22:42;;;;;;;11.25;9.65;;;;;;;-148.88;89.59;74371.88;5013219;28;20021;-86
2022/08/16 04:25:09;;;;;;;13.13;9.00;;;;;;;-148.88;88.65;74361.72;5012949;28;20029;-84
2022/08/16 04:27:34;;;;;;;11.23;8.75;;;;;;;-148.88;88.16;74359.69;5012845;28;20026;-85
2022/08/16 04:30:21;;;;;;;10.65;8.45;;;;;;;-148.88;88.38;74359.69;5012930;28;20030;-88
2022/08/16 04:32:49;;;;;;;9.43;8.43;;;;;;;-148.88;88.42;74359.69;5015485;28;20030;-87
2022/08/16 04:35:22;;;;;;;9.98;8.75;;;;;;;-148.88;88.60;74363.75;5012686;28;20025;-89
2022/08/16 04:38:05;;;;;;;11.23;8.07;;;;;;;-148.88;88.89;74371.88;5013081;28;20034;-87
2022/08/16 04:40:31;;;;;;;9.60;8.60;;;;;;;-148.88;89.27;74371.88;5012832;28;20022;-86
2022/08/16 04:42:58;;;;;;;10.27;8.55;;;;;;;-148.88;88.89;74367.81;5013483;28;20030;-85
2022/08/16 04:45:24;;;;;;;10.70;8.30;;;;;;;-148.88;88.45;74371.88;5012839;28;20109;-86
2022/08/16 04:47:49;;;;;;;12.05;8.80;;;;;;;-148.88;88.21;74369.84;5012467;28;20117;-86
2022/08/16 04:50:19;;;;;;;8.38;7.47;;;;;;;-148.88;87.87;74365.78;5013014;28;20392;-86
2022/08/16 04:52:46;;;;;;;9.38;8.23;;;;;;;-148.88;87.74;74369.84;5014713;28;20052;-86
2022/08/16 04:55:15;;;;;;;11.23;8.75;;;;;;;-148.88;87.88;74380.00;5013648;28;20037;-86
2022/08/16 04:57:42;;;;;;;10.15;8.48;;;;;;;-148.88;88.14;74380.00;5013754;28;20024;-85
2022/08/16 05:00:14;;;;;;;9.77;7.53;;;;;;;-148.88;88.06;74382.03;5012719;28;20041;-87
2022/08/16 05:02:42;;;;;;;8.77;7.90;;;;;;;-148.88;87.77;74380.00;5014524;28;20556;-88
2022/08/16 05:05:37;;;;;;;8.27;7.40;;;;;;;-148.88;87.88;74380.00;5013298;28;20113;-86
2022/08/16 05:08:40;;;;;;;8.57;7.20;;;;;;;-148.88;87.60;74369.84;5015554;28;20117;-89
2022/08/16 05:18:56;;;;;;;8.68;7.32;;;;;;;-148.88;87.33;74363.75;4957475;28;20491;-90
2022/08/16 05:28:20;;;;;;;10.55;8.25;;;;;;;-148.88;87.63;74363.75;5014492;28;20131;-90
2022/08/16 05:34:42;;;;;;;9.13;8.15;;;;;;;-148.88;87.52;74355.63;5005468;28;20030;-92
2022/08/16 05:38:02;;;;;;;;;;;;;;;;;;;;;
2022/08/16 05:41:05;;;;;;;8.80;7.85;;;;;;;-148.88;87.82;74347.50;4935046;29;20046;-91
2022/08/16 05:44:10;;;;;;;8.95;8.05;;;;;;;-148.88;87.57;74339.38;4916443;29;20472;-92
2022/08/16 05:50:14;;;;;;;10.10;8.18;;;;;;;-148.88;87.34;74319.09;4917357;29;20475;-91
2022/08/16 05:52:39;;;;;;;10.63;8.13;;;;;;;-148.88;86.74;74306.91;4953514;29;20047;-77
2022/08/16 05:55:06;;;;;;;11.98;7.63;;;;;;;-148.88;86.77;74294.72;4954749;28;20035;-77
2022/08/16 05:57:31;;;;;;;8.75;7.68;;;;;;;-148.88;85.79;74278.47;4955178;28;20028;-77
2022/08/16 05:59:57;;;;;;;9.45;7.50;;;;;;;-148.88;84.90;74266.28;4958653;28;20027;-77
2022/08/16 06:02:26;;;;;;;9.25;7.35;;;;;;;-148.88;84.17;74248.00;4958655;28;20023;-77
2022/08/16 06:04:51;;;;;;;9.60;7.53;;;;;;;-148.88;83.16;74229.75;4958390;28;20035;-78
2022/08/16 06:07:17;;;;;;;8.07;7.28;;;;;;;-148.88;83.03;74213.50;4958380;28;20366;-78
2022/08/16 06:09:42;;;;;;;11.65;7.90;;;;;;;-148.88;83.04;74207.41;4969107;28;20033;-78
2022/08/16 06:12:08;;;;;;;9.18;7.45;;;;;;;-148.88;83.43;74197.25;4977748;28;20081;-78
2022/08/16 06:14:34;;;;;;;8.90;7.40;;;;;;;-148.88;83.75;74176.94;4977331;28;20755;-78
2022/08/16 06:16:59;;;;;;;8.48;6.90;;;;;;;-148.88;82.95;74160.72;4977414;28;20102;-78
2022/08/16 06:19:24;;;;;;;9.75;7.10;;;;;;;-148.88;81.56;74144.47;4977348;28;20380;-77
2022/08/16 06:21:50;;;;;;;8.80;7.40;;;;;;;-148.88;80.52;74140.41;4976142;28;20019;-77
2022/08/16 06:24:15;;;;;;;12.68;7.75;;;;;;;-148.88;80.79;74126.19;4976945;28;20023;-77
2022/08/16 06:26:41;;;;;;;11.93;7.35;;;;;;;-148.88;80.50;74120.09;4976233;28;20078;-78
2022/08/16 06:29:06;;;;;;;10.20;7.88;;;;;;;-148.88;78.62;74124.16;4976414;28;20474;-78
2022/08/16 06:31:31;;;;;;;8.40;7.13;;;;;;;-148.88;78.94;74128.22;4977299;28;20023;-78
2022/08/16 06:33:57;;;;;;;10.20;7.13;;;;;;;-148.88;79.42;74122.13;4977461;28;20081;-78
2022/08/16 06:36:23;;;;;;;8.73;7.75;;;;;;;-148.88;80.96;74111.97;4976223;28;20058;-78
2022/08/16 06:38:50;;;;;;;12.05;7.95;;;;;;;-148.88;78.76;74111.97;4977693;28;20093;-78
2022/08/16 06:41:16;;;;;;;10.07;7.43;;;;;;;-148.88;79.21;74107.91;4976469;28;20019;-77
2022/08/16 06:43:41;;;;;;;9.30;7.40;;;;;;;-148.88;78.16;74107.91;4978219;28;20061;-78
2022/08/16 06:46:19;;;;;;;13.35;7.75;;;;;;;-148.88;78.91;74101.81;4977902;28;20078;-78
2022/08/16 06:48:44;;;;;;;9.90;7.60;;;;;;;-148.88;79.00;74099.78;4976317;28;20443;-78
2022/08/16 06:51:10;;;;;;;11.77;7.30;;;;;;;-148.88;78.41;74099.78;4976653;28;20568;-77
2022/08/16 06:53:35;;;;;;;10.00;7.47;;;;;;;-148.88;78.81;74101.81;4977646;28;20524;-78
2022/08/16 06:56:04;;;;;;;9.32;7.35;;;;;;;-148.88;79.49;74105.88;4977373;28;20460;-78
2022/08/16 06:58:30;;;;;;;8.40;7.35;;;;;;;-148.88;79.95;74103.84;4975414;28;20445;-78
2022/08/16 07:00:55;;;;;;;8.77;7.78;;;;;;;-148.88;80.04;74103.84;4975657;28;20499;-77
2022/08/16 07:03:20;;;;;;;9.63;7.13;;;;;;;-148.88;79.70;74095.72;4977125;28;20026;-77
2022/08/16 07:05:46;;;;;;;9.70;7.75;;;;;;;-148.88;78.66;74107.91;4978170;28;20082;-77
2022/08/16 07:08:11;;;;;;;10.20;7.63;;;;;;;-148.88;77.48;74114.00;4977244;28;20046;-78
2022/08/16 07:10:37;;;;;;;10.75;7.85;;;;;;;-148.88;77.31;74107.91;4976974;28;20027;-77
2022/08/16 07:13:02;;;;;;;9.18;7.22;;;;;;;-148.88;75.90;74091.69;4974926;28;20022;-78
2022/08/16 07:15:28;;;;;;;9.90;8.05;;;;;;;-148.88;76.42;74079.50;4971714;28;20078;-78
2022/08/16 07:17:53;;;;;;;8.77;7.30;;;;;;;-148.88;74.32;74079.50;4976591;28;20058;-78
2022/08/16 07:20:21;;;;;;;8.57;7.20;;;;;;;-148.88;74.41;74067.31;4977152;28;20030;-78
2022/08/16 07:22:47;;;;;;;9.35;7.70;;;;;;;-148.88;73.84;74067.31;4976517;28;20455;-78
2022/08/16 07:25:14;;;;;;;9.45;7.55;;;;;;;-148.88;73.85;74051.06;4966151;28;20477;-78
2022/08/16 07:27:40;;;;;;;10.90;7.97;;;;;;;-148.88;73.72;74047.00;4957805;28;20504;-79
2022/08/16 07:30:09;;;;;;;12.07;7.88;;;;;;;-148.88;72.42;74038.88;4958607;28;20031;-78
2022/08/16 07:32:34;;;;;;;10.07;8.15;;;;;;;-148.88;72.49;74026.72;4957717;28;20027;-77
2022/08/16 07:35:00;;;;;;;8.68;7.00;;;;;;;-148.88;72.51;74022.66;4955983;29;20038;-80
2022/08/16 07:37:25;;;;;;;10.30;7.38;;;;;;;-148.88;72.51;74006.41;4956378;28;20024;-79
2022/08/16 07:39:51;;;;;;;11.45;7.60;;;;;;;-148.88;71.23;73994.22;4956979;28;20033;-79
2022/08/16 07:42:16;;;;;;;10.20;7.18;;;;;;;-148.88;72.27;73994.22;4958311;28;20389;-80
2022/08/16 07:44:41;;;;;;;12.40;8.13;;;;;;;-148.88;71.18;73988.13;4958806;29;20082;-80
2022/08/16 07:47:07;;;;;;;10.52;8.13;;;;;;;-148.88;71.83;73980.00;4959147;29;20019;-80
2022/08/16 07:49:32;;;;;;;10.77;8.48;;;;;;;-148.88;71.62;73973.91;4957790;29;20459;-80
2022/08/16 07:51:57;;;;;;;11.23;8.77;;;;;;;-148.88;70.66;73984.06;4957472;28;20495;-80
2022/08/16 07:54:23;;;;;;;12.63;8.98;;;;;;;-148.88;71.70;73982.03;4958562;28;20046;-81
2022/08/16 07:56:48;;;;;;;13.45;8.90;;;;;;;-148.88;71.52;73998.28;4959068;29;20019;-80
2022/08/16 07:59:13;;;;;;;10.23;8.20;;;;;;;-148.88;71.49;73986.09;4959829;28;20027;-81
2022/08/16 08:01:39;;;;;;;12.07;8.77;;;;;;;-148.88;71.67;73977.97;4959010;29;20389;-81
2022/08/16 08:04:05;;;;;;;12.13;9.50;;;;;;;-148.88;70.98;73986.09;4957339;29;20178;-81
2022/08/16 08:06:31;;;;;;;9.45;8.32;;;;;;;-148.88;71.55;73984.06;4957639;29;20389;-81
2022/08/16 08:08:57;;;;;;;12.98;8.48;;;;;;;-148.88;72.19;73977.97;4957682;29;20369;-81
2022/08/16 08:11:24;;;;;;;13.02;7.80;;;;;;;-148.88;71.64;73969.84;4956098;29;20023;-79
2022/08/16 08:13:52;;;;;;;12.05;9.25;;;;;;;-148.88;70.17;73963.75;4956740;28;20027;-79
2022/08/16 08:16:20;;;;;;;13.15;8.50;;;;;;;-148.88;70.69;73959.72;4956675;28;20039;-79
2022/08/16 08:18:46;;;;;;;13.40;9.15;;;;;;;-148.88;69.64;73969.84;4955224;29;20122;-80
2022/08/16 08:21:11;;;;;;;13.05;9.23;;;;;;;-148.88;70.45;73955.66;4957104;28;20023;-81
2022/08/16 08:23:37;;;;;;;11.25;9.10;;;;;;;-148.88;68.98;73951.59;4956082;28;20047;-80
2022/08/16 08:26:04;;;;;;;12.70;9.40;;;;;;;-148.88;71.80;73933.31;4957895;28;20019;-80
2022/08/16 08:28:30;;;;;;;14.02;9.30;;;;;;;-148.88;70.82;73925.19;4958929;28;20330;-81
2022/08/16 08:30:57;;;;;;;13.18;8.38;;;;;;;-148.88;71.70;73908.94;4957019;28;20030;-81
2022/08/16 08:33:22;;;;;;;13.07;8.90;;;;;;;-148.88;71.31;73900.81;4956837;29;20038;-81
2022/08/16 08:35:47;;;;;;;11.93;9.05;;;;;;;-148.88;70.40;73888.66;4958253;29;20023;-81
2022/08/16 08:38:13;;;;;;;12.10;9.15;;;;;;;-148.88;71.05;73874.44;4958053;28;20051;-81
2022/08/16 08:40:38;;;;;;;12.05;9.20;;;;;;;-148.88;68.80;73864.28;4958339;28;20474;-81
2022/08/16 08:43:04;;;;;;;12.90;9.55;;;;;;;-148.88;67.19;73874.44;4958191;28;20027;-81
2022/08/16 08:45:29;;;;;;;12.90;8.27;;;;;;;-148.88;66.55;73868.34;4957868;28;20548;-81
2022/08/16 08:47:55;;;;;;;10.40;8.70;;;;;;;-148.88;66.86;73864.28;4958374;28;20038;-81
2022/08/16 08:50:23;;;;;;;14.00;10.00;;;;;;;-148.88;66.51;73868.34;4958696;28;20051;-80
2022/08/16 08:52:50;;;;;;;11.60;9.23;;;;;;;-148.88;66.79;73868.34;4957119;28;20027;-80
2022/08/16 08:55:15;;;;;;;10.10;7.78;;;;;;;-148.88;68.36;73841.94;4956133;28;20027;-80
2022/08/16 08:57:44;;;;;;;11.55;8.35;;;;;;;-148.88;64.44;73843.97;4954963;29;20386;-81
2022/08/16 09:00:11;;;;;;;12.07;9.55;;;;;;;-148.88;66.08;73835.84;4957320;28;20034;-81
2022/08/16 09:02:37;;;;;;;11.68;9.35;;;;;;;-148.88;64.63;73839.91;4957405;28;20093;-81
2022/08/16 09:05:02;;;;;;;11.45;8.48;;;;;;;-148.88;67.02;73815.56;4957083;28;20130;-81
2022/08/16 09:07:28;;;;;;;11.65;9.18;;;;;;;-148.88;66.07;73823.69;4956229;29;20019;-81
2022/08/16 09:09:53;;;;;;;13.40;9.43;;;;;;;-148.88;67.52;73803.38;4956387;28;20038;-81
2022/08/16 09:12:18;;;;;;;11.88;9.00;;;;;;;-148.88;65.93;73791.19;4957866;28;20545;-81
2022/08/16 09:14:44;;;;;;;9.32;8.30;;;;;;;-148.88;63.89;73783.06;4957130;28;20031;-80
2022/08/16 09:17:10;;;;;;;14.82;8.55;;;;;;;-148.88;64.86;73754.66;4957274;28;20023;-81
2022/08/16 09:19:38;;;;;;;10.55;7.55;;;;;;;-148.88;66.14;73722.16;4957324;28;20035;-81
2022/08/16 09:22:05;;;;;;;11.88;8.13;;;;;;;-148.88;64.77;73710.00;4957701;29;20023;-81
2022/08/16 09:24:31;;;;;;;12.25;8.38;;;;;;;-148.88;63.75;73703.91;4958000;28;20396;-81
2022/08/16 09:26:56;;;;;;;10.60;8.15;;;;;;;-148.88;65.63;73677.50;4958146;28;20051;-81
2022/08/16 09:29:22;;;;;;;9.35;8.05;;;;;;;-148.88;63.23;73663.28;4958093;29;20020;-82
2022/08/16 09:31:48;;;;;;;14.23;9.20;;;;;;;-148.88;62.70;73659.22;4956691;28;20035;-81
2022/08/16 09:34:13;;;;;;;10.18;8.38;;;;;;;-148.88;61.39;73651.13;4959382;28;20023;-81
2022/08/16 09:36:39;;;;;;;11.98;8.48;;;;;;;-148.88;59.76;73645.03;4959096;28;20030;-81
2022/08/16 09:39:04;;;;;;;8.80;7.05;;;;;;;-148.88;60.36;73616.59;4961320;29;20027;-81
2022/08/16 09:41:30;;;;;;;11.50;7.95;;;;;;;-148.88;60.81;73588.19;4961369;28;20106;-82
2022/08/16 09:43:56;;;;;;;10.45;7.32;;;;;;;-148.88;61.19;73559.75;4960203;29;20031;-82
2022/08/16 09:46:22;;;;;;;11.32;8.38;;;;;;;-148.88;56.92;73567.88;4960966;28;20027;-81
2022/08/16 09:48:48;;;;;;;8.88;6.93;;;;;;;-148.88;59.42;73543.50;4960886;28;20024;-82
2022/08/16 09:51:14;;;;;;;10.85;8.20;;;;;;;-148.88;56.01;73547.56;4959571;29;20392;-81
2022/08/16 09:53:40;;;;;;;8.65;7.00;;;;;;;-148.88;58.40;73513.06;4961217;28;20025;-81
2022/08/16 09:56:27;;;;;;;11.30;7.68;;;;;;;-148.88;55.00;73525.25;4959456;28;20039;-82
2022/08/16 09:58:53;;;;;;;9.38;6.97;;;;;;;-148.88;54.56;73511.03;4959833;28;20445;-82
2022/08/16 10:01:18;;;;;;;10.85;8.10;;;;;;;-148.88;53.83;73545.53;4961051;28;20485;-81
2022/08/16 10:03:44;;;;;;;8.48;6.68;;;;;;;-148.88;54.83;73511.03;4960180;28;20457;-78
2022/08/16 10:06:09;;;;;;;8.90;6.15;;;;;;;-148.88;56.29;73456.22;4960260;29;20102;-78
2022/08/16 10:08:34;;;;;;;8.82;6.57;;;;;;;-148.88;55.67;73417.66;4960317;29;20134;-80
2022/08/16 10:13:44;;;;;;;8.57;6.22;;;;;;;-148.88;52.00;73403.44;5036412;28;20166;-76
2022/08/16 10:16:12;;;;;;;7.57;5.55;;;;;;;-148.88;50.84;73385.19;5035864;28;20483;-76
2022/08/16 10:18:39;;;;;;;8.70;6.28;;;;;;;-148.88;51.10;73389.22;5020998;28;20024;-76
2022/08/16 10:21:05;;;;;;;10.27;5.10;;;;;;;-148.88;52.02;73342.53;5016350;28;20026;-76
2022/08/16 10:23:30;;;;;;;7.10;4.97;;;;;;;-148.88;50.50;73308.03;5016181;28;20044;-76
2022/08/16 10:26:13;;;;;;;6.68;4.50;;;;;;;-148.88;48.08;73283.69;5034698;23;20099;-85
2022/08/16 10:28:39;;;;;;;6.18;4.07;;;;;;;-148.88;47.27;73249.16;4996360;28;20428;-86
2022/08/16 10:31:05;;;;;;;6.30;5.00;;;;;;;-148.88;49.70;73220.75;4997527;28;20036;-86
2022/08/16 10:33:33;;;;;;;7.20;4.97;;;;;;;-148.88;47.33;73210.59;5000363;28;20022;-85
2022/08/16 10:36:00;;;;;;;7.32;5.70;;;;;;;-148.88;46.10;73220.75;5013414;28;20022;-87
2022/08/16 10:38:26;;;;;;;7.10;4.45;;;;;;;-148.88;48.11;73220.75;4998141;28;20061;-86
2022/08/16 10:40:54;;;;;;;8.05;4.40;;;;;;;-148.88;46.02;73214.66;4995681;28;20117;-86
2022/08/16 10:43:20;;;;;;;7.68;4.80;;;;;;;-148.88;45.61;73206.53;4995719;28;20177;-85
2022/08/16 10:45:47;;;;;;;6.32;4.47;;;;;;;-148.88;45.82;73180.16;4996116;28;20145;-85
2022/08/16 10:48:13;;;;;;;6.47;4.63;;;;;;;-148.88;47.77;73200.44;4995128;28;20026;-85
2022/08/16 10:50:41;;;;;;;7.65;4.68;;;;;;;-148.88;44.31;73184.22;4995466;28;20037;-85
2022/08/16 10:53:06;;;;;;;6.60;4.13;;;;;;;-148.88;47.64;73133.47;4996926;28;20026;-85
2022/08/16 10:55:43;;;;;;;6.65;4.35;;;;;;;-148.88;42.77;73123.31;4995895;28;20098;-85
2022/08/16 10:58:11;;;;;;;7.10;4.40;;;;;;;-148.88;42.57;73167.97;4995350;28;20026;-86
2022/08/16 11:00:42;;;;;;;7.03;4.18;;;;;;;-148.88;42.23;73182.19;4996508;28;20034;-85
2022/08/16 11:03:14;;;;;;;5.82;3.70;;;;;;;-148.88;43.03;73121.28;4996262;28;20030;-85
2022/08/16 11:05:42;;;;;;;7.72;4.05;;;;;;;-148.88;44.24;73068.50;4997304;28;20078;-85
2022/08/16 11:08:10;;;;;;;5.97;5.05;;;;;;;-148.88;42.74;73064.44;4995817;28;20033;-85
2022/08/16 11:10:42;;;;;;;6.10;4.35;;;;;;;-148.88;44.88;73044.16;4995984;28;20117;-85
2022/08/16 11:13:10;;;;;;;5.65;4.38;;;;;;;-148.88;41.81;73044.16;4996659;28;20100;-85
2022/08/16 11:15:42;;;;;;;7.53;4.88;;;;;;;-148.88;41.13;73100.97;4995157;28;20036;-86
2022/08/16 11:18:12;;;;;;;6.05;4.47;;;;;;;-148.88;41.11;73100.97;4995824;28;20434;-85
2022/08/16 11:20:43;;;;;;;8.15;5.22;;;;;;;-148.88;41.15;73096.94;4994757;28;20108;-85
2022/08/16 11:23:12;;;;;;;11.02;4.70;;;;;;;-148.88;41.13;73092.88;4995161;28;20092;-85
2022/08/16 11:25:41;;;;;;;7.20;4.53;;;;;;;-148.88;40.62;73090.84;4995277;28;20022;-85
2022/08/16 11:28:11;;;;;;;7.25;4.68;;;;;;;-148.88;40.02;73064.44;4994741;28;20067;-85
2022/08/16 11:30:40;;;;;;;8.98;5.20;;;;;;;-148.88;40.18;73121.28;4996033;28;20030;-84
2022/08/16 11:33:16;;;;;;;5.35;4.15;;;;;;;-148.88;40.28;73125.34;4994509;28;20060;-87
2022/08/16 11:35:47;;;;;;;4.82;3.67;;;;;;;-148.88;40.05;73084.75;4995232;28;20380;-86
2022/08/16 11:38:18;;;;;;;6.30;4.22;;;;;;;-148.88;39.25;73080.69;4996017;28;20023;-86
2022/08/16 11:40:50;;;;;;;6.47;4.15;;;;;;;-148.88;40.43;73040.09;4994390;28;20026;-86
2022/08/16 11:43:20;;;;;;;6.05;4.32;;;;;;;-148.88;39.48;73034.00;4994944;28;20516;-86
2022/08/16 11:45:47;;;;;;;7.25;4.90;;;;;;;-148.88;39.19;73023.84;4995743;28;20036;-86